createdAt,value
2023-11-19T00:00:06.386Z,99.99
2023-11-19T00:01:06.563Z,99.99
2023-11-19T00:02:06.510Z,99.99
2023-11-19T00:03:06.683Z,99.99
2023-11-19T00:04:06.546Z,99.99
2023-11-19T00:05:06.451Z,99.99
2023-11-19T00:06:06.347Z,99.99
2023-11-19T00:07:06.360Z,99.99
2023-11-19T00:08:06.326Z,99.99
2023-11-19T00:09:06.260Z,99.99
2023-11-19T00:10:06.349Z,99.99
2023-11-19T00:11:06.260Z,99.99
2023-11-19T00:12:06.344Z,99.99
2023-11-19T00:13:06.266Z,99.99
2023-11-19T00:14:06.207Z,99.99
2023-11-19T00:15:06.289Z,99.99
2023-11-19T00:16:06.306Z,99.99
2023-11-19T00:17:06.169Z,99.99
2023-11-19T00:18:06.318Z,99.99
2023-11-19T00:19:06.182Z,99.99
2023-11-19T00:20:06.180Z,99.99
2023-11-19T00:21:06.119Z,99.99
2023-11-19T00:22:06.171Z,99.99
2023-11-19T00:23:06.096Z,99.99
2023-11-19T00:24:06.100Z,99.99
2023-11-19T00:25:06.079Z,99.99
2023-11-19T00:26:06.733Z,99.99
2023-11-19T00:27:06.053Z,99.99
2023-11-19T00:28:06.048Z,99.99
2023-11-19T00:29:06.059Z,99.99
2023-11-19T00:30:05.973Z,99.99
2023-11-19T00:31:06.027Z,99.99
2023-11-19T00:32:06.379Z,99.99
2023-11-19T00:33:06.050Z,99.99
2023-11-19T00:34:06.065Z,99.99
2023-11-19T00:35:05.912Z,99.99
2023-11-19T00:36:05.923Z,99.99
2023-11-19T00:37:05.945Z,99.99
2023-11-19T00:38:05.953Z,99.99
2023-11-19T00:39:06.038Z,99.99
2023-11-19T00:40:05.870Z,99.99
2023-11-19T00:41:05.877Z,99.99
2023-11-19T00:42:05.843Z,99.99
2023-11-19T00:43:05.920Z,99.99
2023-11-19T00:44:05.871Z,99.99
2023-11-19T00:45:05.872Z,99.99
2023-11-19T00:46:05.860Z,99.99
2023-11-19T00:47:05.903Z,99.99
2023-11-19T00:48:05.843Z,99.99
2023-11-19T00:49:05.771Z,99.99
2023-11-19T00:50:05.753Z,99.99
2023-11-19T00:51:05.802Z,99.99
2023-11-19T00:52:05.799Z,99.99
2023-11-19T00:53:05.670Z,99.99
2023-11-19T00:54:05.672Z,99.99
2023-11-19T00:55:05.714Z,99.99
2023-11-19T00:56:05.671Z,99.99
2023-11-19T00:57:05.645Z,99.99
2023-11-19T00:58:05.658Z,99.99
2023-11-19T00:59:05.613Z,99.99
2023-11-19T01:00:05.609Z,99.99
2023-11-19T01:01:05.638Z,99.99
2023-11-19T01:02:05.579Z,99.99
2023-11-19T01:03:05.678Z,99.99
2023-11-19T01:04:05.725Z,99.99
2023-11-19T01:05:05.581Z,99.99
2023-11-19T01:06:05.655Z,99.99
2023-11-19T01:07:05.626Z,99.99
2023-11-19T01:08:05.496Z,99.99
2023-11-19T01:09:06.185Z,99.99
2023-11-19T01:10:05.548Z,99.99
2023-11-19T01:11:05.865Z,99.99
2023-11-19T01:12:05.449Z,99.99
2023-11-19T01:13:05.474Z,99.99
2023-11-19T01:14:05.523Z,99.99
2023-11-19T01:15:05.397Z,99.99
2023-11-19T01:16:05.570Z,99.99
2023-11-19T01:17:05.440Z,99.99
2023-11-19T01:18:05.402Z,99.99
2023-11-19T01:19:12.348Z,99.99
2023-11-19T01:20:06.347Z,99.99
2023-11-19T01:21:05.389Z,99.99
2023-11-19T01:22:05.375Z,99.99
2023-11-19T01:23:05.371Z,99.99
2023-11-19T01:24:05.270Z,99.99
2023-11-19T01:25:05.306Z,99.99
2023-11-19T01:26:05.440Z,99.99
2023-11-19T01:27:05.267Z,99.99
2023-11-19T01:28:05.311Z,99.99
2023-11-19T01:29:05.291Z,99.99
2023-11-19T01:30:05.272Z,99.99
2023-11-19T01:31:05.205Z,99.99
2023-11-19T01:32:05.211Z,99.99
2023-11-19T01:33:05.214Z,99.99
2023-11-19T01:34:05.358Z,99.99
2023-11-19T01:35:05.289Z,99.99
2023-11-19T01:36:05.162Z,99.99
2023-11-19T01:37:05.268Z,99.99
2023-11-19T01:38:05.097Z,99.99
2023-11-19T01:39:05.225Z,99.99
2023-11-19T01:40:05.120Z,99.99
2023-11-19T01:41:05.077Z,99.99
2023-11-19T01:42:05.078Z,99.99
2023-11-19T01:43:05.174Z,99.99
2023-11-19T01:44:05.067Z,99.99
2023-11-19T01:45:05.023Z,99.99
2023-11-19T01:46:05.067Z,99.99
2023-11-19T01:47:05.022Z,99.99
2023-11-19T01:48:05.047Z,99.99
2023-11-19T01:49:04.961Z,99.99
2023-11-19T01:50:05.017Z,99.99
2023-11-19T01:51:05.034Z,99.99
2023-11-19T01:52:04.983Z,99.99
2023-11-19T01:53:04.957Z,99.99
2023-11-19T01:54:04.963Z,99.99
2023-11-19T01:55:04.898Z,99.99
2023-11-19T01:56:04.880Z,99.99
2023-11-19T01:57:04.865Z,99.99
2023-11-19T01:58:05.005Z,99.99
2023-11-19T01:59:04.901Z,99.99
2023-11-19T02:00:04.815Z,99.99
2023-11-19T02:01:05.033Z,99.99
2023-11-19T02:02:04.999Z,99.99
2023-11-19T02:03:05.287Z,99.99
2023-11-19T02:04:04.889Z,99.99
2023-11-19T02:05:04.816Z,99.99
2023-11-19T02:06:04.744Z,99.99
2023-11-19T02:07:04.811Z,99.99
2023-11-19T02:08:04.724Z,99.99
2023-11-19T02:09:04.714Z,99.99
2023-11-19T02:10:04.786Z,99.99
2023-11-19T02:11:04.727Z,99.99
2023-11-19T02:12:04.677Z,99.99
2023-11-19T02:13:06.616Z,99.99
2023-11-19T02:14:04.686Z,99.99
2023-11-19T02:15:04.701Z,99.99
2023-11-19T02:16:04.831Z,99.99
2023-11-19T02:17:04.604Z,99.99
2023-11-19T02:18:04.655Z,99.99
2023-11-19T02:19:04.651Z,99.99
2023-11-19T02:20:04.610Z,99.99
2023-11-19T02:21:04.542Z,99.99
2023-11-19T02:22:04.619Z,99.99
2023-11-19T02:23:04.532Z,99.99
2023-11-19T02:25:04.551Z,99.99
2023-11-19T02:26:04.566Z,99.99
2023-11-19T02:27:04.480Z,99.99
2023-11-19T02:28:04.516Z,99.99
2023-11-19T02:29:07.481Z,99.99
2023-11-19T02:30:04.765Z,99.99
2023-11-19T02:31:04.502Z,99.99
2023-11-19T02:32:04.524Z,99.99
2023-11-19T02:33:04.459Z,99.99
2023-11-19T02:34:04.411Z,99.99
2023-11-19T02:36:04.437Z,99.99
2023-11-19T02:37:04.378Z,99.99
2023-11-19T02:38:04.334Z,99.99
2023-11-19T02:39:04.346Z,99.99
2023-11-19T02:40:04.554Z,99.99
2023-11-19T02:41:04.298Z,99.99
2023-11-19T02:42:04.292Z,99.99
2023-11-19T02:43:04.295Z,99.99
2023-11-19T02:44:04.317Z,99.99
2023-11-19T02:45:04.284Z,99.99
2023-11-19T02:46:15.474Z,99.99
2023-11-19T02:47:05.268Z,99.99
2023-11-19T02:48:04.254Z,99.99
2023-11-19T02:49:04.250Z,99.99
2023-11-19T02:50:04.191Z,99.99
2023-11-19T02:51:04.168Z,99.99
2023-11-19T02:52:04.249Z,99.99
2023-11-19T02:53:04.130Z,99.99
2023-11-19T02:54:04.151Z,99.99
2023-11-19T02:55:04.209Z,99.99
2023-11-19T02:56:04.102Z,99.99
2023-11-19T02:57:04.469Z,99.99
2023-11-19T02:58:04.093Z,99.99
2023-11-19T02:59:04.070Z,99.99
2023-11-19T03:00:04.078Z,99.99
2023-11-19T03:01:04.125Z,99.99
2023-11-19T03:02:04.114Z,99.99
2023-11-19T03:03:04.141Z,99.99
2023-11-19T03:04:04.710Z,99.99
2023-11-19T03:05:04.072Z,99.99
2023-11-19T03:06:03.969Z,99.99
2023-11-19T03:07:03.986Z,99.99
2023-11-19T03:08:03.990Z,99.99
2023-11-19T03:09:03.940Z,99.99
2023-11-19T03:10:03.972Z,99.99
2023-11-19T03:11:06.710Z,99.99
2023-11-19T03:12:03.959Z,99.99
2023-11-19T03:13:03.989Z,99.99
2023-11-19T03:14:03.863Z,99.99
2023-11-19T03:15:04.895Z,99.99
2023-11-19T03:16:03.954Z,99.99
2023-11-19T03:17:03.932Z,99.99
2023-11-19T03:18:03.849Z,99.99
2023-11-19T03:19:03.947Z,99.99
2023-11-19T03:20:03.845Z,99.99
2023-11-19T03:21:03.797Z,99.99
2023-11-19T03:22:03.920Z,99.99
2023-11-19T03:23:03.774Z,99.99
2023-11-19T03:24:03.782Z,99.99
2023-11-19T03:25:03.812Z,99.99
2023-11-19T03:26:03.740Z,99.99
2023-11-19T03:27:03.740Z,99.99
2023-11-19T03:28:03.776Z,99.99
2023-11-19T03:29:03.711Z,99.99
2023-11-19T03:30:03.671Z,99.99
2023-11-19T03:31:03.735Z,99.99
2023-11-19T03:32:03.666Z,99.99
2023-11-19T03:33:03.948Z,99.99
2023-11-19T03:34:03.665Z,99.99
2023-11-19T03:35:03.674Z,99.99
2023-11-19T03:36:03.619Z,99.99
2023-11-19T03:37:03.623Z,99.99
2023-11-19T03:38:03.560Z,99.99
2023-11-19T03:39:03.672Z,99.99
2023-11-19T03:40:03.700Z,99.99
2023-11-19T03:41:03.541Z,99.99
2023-11-19T03:42:03.531Z,99.99
2023-11-19T03:43:03.601Z,99.99
2023-11-19T03:44:03.499Z,99.99
2023-11-19T03:45:03.509Z,99.99
2023-11-19T03:46:03.600Z,99.99
2023-11-19T03:47:03.486Z,99.99
2023-11-19T03:48:03.451Z,99.99
2023-11-19T03:49:03.492Z,99.99
2023-11-19T03:50:03.424Z,99.99
2023-11-19T03:51:03.408Z,99.99
2023-11-19T03:52:03.412Z,99.99
2023-11-19T03:53:03.365Z,99.99
2023-11-19T03:54:03.370Z,99.99
2023-11-19T03:55:03.468Z,99.99
2023-11-19T03:56:03.387Z,99.99
2023-11-19T03:57:03.324Z,99.99
2023-11-19T03:58:03.347Z,99.99
2023-11-19T03:59:03.299Z,99.99
2023-11-19T04:00:03.314Z,99.99
2023-11-19T04:01:03.551Z,99.99
2023-11-19T04:02:03.269Z,99.99
2023-11-19T04:03:03.348Z,99.99
2023-11-19T04:04:03.308Z,99.99
2023-11-19T04:05:03.299Z,99.99
2023-11-19T04:06:03.212Z,99.99
2023-11-19T04:07:05.895Z,99.99
2023-11-19T04:08:03.166Z,99.99
2023-11-19T04:09:03.344Z,99.99
2023-11-19T04:10:03.389Z,99.99
2023-11-19T04:11:03.146Z,99.99
2023-11-19T04:12:03.133Z,99.99
2023-11-19T04:13:03.226Z,99.99
2023-11-19T04:14:03.172Z,99.99
2023-11-19T04:15:03.070Z,99.99
2023-11-19T04:16:03.060Z,99.99
2023-11-19T04:17:03.100Z,99.99
2023-11-19T04:18:03.062Z,99.99
2023-11-19T04:19:03.098Z,99.99
2023-11-19T04:20:03.097Z,99.99
2023-11-19T04:21:03.004Z,99.99
2023-11-19T04:22:03.021Z,99.99
2023-11-19T04:23:02.996Z,99.99
2023-11-19T04:24:02.955Z,99.99
2023-11-19T04:25:03.007Z,99.99
2023-11-19T04:27:02.922Z,99.99
2023-11-19T04:28:02.966Z,99.99
2023-11-19T04:29:02.916Z,99.99
2023-11-19T04:30:02.943Z,99.99
2023-11-19T04:31:02.907Z,99.99
2023-11-19T04:32:02.908Z,99.99
2023-11-19T04:33:02.880Z,99.99
2023-11-19T04:34:02.898Z,99.99
2023-11-19T04:35:02.835Z,99.99
2023-11-19T04:36:02.820Z,99.99
2023-11-19T04:37:13.121Z,99.99
2023-11-19T04:38:03.812Z,99.99
2023-11-19T04:39:02.779Z,99.99
2023-11-19T04:40:02.861Z,99.99
2023-11-19T04:41:02.839Z,99.99
2023-11-19T04:42:02.712Z,99.99
2023-11-19T04:43:02.759Z,99.99
2023-11-19T04:44:02.732Z,99.99
2023-11-19T04:45:02.692Z,99.99
2023-11-19T04:46:02.739Z,99.99
2023-11-19T04:47:02.769Z,99.99
2023-11-19T04:48:02.707Z,99.99
2023-11-19T04:49:02.642Z,99.99
2023-11-19T04:50:02.609Z,99.99
2023-11-19T04:51:02.606Z,99.99
2023-11-19T04:52:02.639Z,99.99
2023-11-19T04:53:02.582Z,99.99
2023-11-19T04:54:02.575Z,99.99
2023-11-19T04:55:02.591Z,99.99
2023-11-19T04:56:02.580Z,99.99
2023-11-19T04:57:02.520Z,99.99
2023-11-19T04:58:02.561Z,99.99
2023-11-19T04:59:02.490Z,99.99
2023-11-19T05:00:02.485Z,99.99
2023-11-19T05:01:02.533Z,99.99
2023-11-19T05:02:02.455Z,99.99
2023-11-19T05:03:02.547Z,99.99
2023-11-19T05:04:02.471Z,99.99
2023-11-19T05:05:02.452Z,99.99
2023-11-19T05:06:02.469Z,99.99
2023-11-19T05:07:02.498Z,99.99
2023-11-19T05:08:02.375Z,99.99
2023-11-19T05:09:05.936Z,99.99
2023-11-19T05:10:02.420Z,99.99
2023-11-19T05:11:02.370Z,99.99
2023-11-19T05:12:02.339Z,99.99
2023-11-19T05:13:02.330Z,99.99
2023-11-19T05:14:02.281Z,99.99
2023-11-19T05:15:02.313Z,99.99
2023-11-19T05:16:02.312Z,99.99
2023-11-19T05:17:02.279Z,99.99
2023-11-19T05:18:02.265Z,99.99
2023-11-19T05:19:02.303Z,99.99
2023-11-19T05:20:02.231Z,99.99
2023-11-19T05:21:02.202Z,99.99
2023-11-19T05:22:02.230Z,99.99
2023-11-19T05:23:02.204Z,99.99
2023-11-19T05:24:02.257Z,99.99
2023-11-19T05:25:02.180Z,99.99
2023-11-19T05:26:02.136Z,99.99
2023-11-19T05:27:02.148Z,99.99
2023-11-19T05:28:02.113Z,99.99
2023-11-19T05:29:02.114Z,99.99
2023-11-19T05:30:02.127Z,99.99
2023-11-19T05:31:02.204Z,99.99
2023-11-19T05:32:02.098Z,99.99
2023-11-19T05:33:02.120Z,99.99
2023-11-19T05:34:02.092Z,99.99
2023-11-19T05:35:06.884Z,99.99
2023-11-19T05:36:01.999Z,99.99
2023-11-19T05:37:02.016Z,99.99
2023-11-19T05:38:01.979Z,99.99
2023-11-19T05:39:02.009Z,99.99
2023-11-19T05:40:04.739Z,99.99
2023-11-19T05:41:01.937Z,99.99
2023-11-19T05:42:01.915Z,99.99
2023-11-19T05:43:01.930Z,99.99
2023-11-19T05:44:01.948Z,99.99
2023-11-19T05:45:01.885Z,99.99
2023-11-19T05:46:01.992Z,99.99
2023-11-19T05:47:01.904Z,99.99
2023-11-19T05:48:01.926Z,99.99
2023-11-19T05:49:01.836Z,99.99
2023-11-19T05:50:01.830Z,99.99
2023-11-19T05:51:01.793Z,99.99
2023-11-19T05:52:01.903Z,99.99
2023-11-19T05:53:01.791Z,99.99
2023-11-19T05:54:01.783Z,99.99
2023-11-19T05:55:01.759Z,99.99
2023-11-19T05:56:01.778Z,99.99
2023-11-19T05:57:01.737Z,99.99
2023-11-19T05:58:01.736Z,99.99
2023-11-19T05:59:01.705Z,99.99
2023-11-19T06:00:01.763Z,99.99
2023-11-19T06:01:01.758Z,99.99
2023-11-19T06:02:01.658Z,99.99
2023-11-19T06:03:01.709Z,99.99
2023-11-19T06:04:01.976Z,99.99
2023-11-19T06:05:01.614Z,99.99
2023-11-19T06:06:01.600Z,99.99
2023-11-19T06:07:01.629Z,99.99
2023-11-19T06:08:01.568Z,99.99
2023-11-19T06:09:13.170Z,99.99
2023-11-19T06:10:02.618Z,99.99
2023-11-19T06:11:01.598Z,99.99
2023-11-19T06:12:01.614Z,99.99
2023-11-19T06:13:01.557Z,99.99
2023-11-19T06:14:01.536Z,99.99
2023-11-19T06:15:01.510Z,99.99
2023-11-19T06:16:01.518Z,99.99
2023-11-19T06:17:01.599Z,99.99
2023-11-19T06:18:01.493Z,99.99
2023-11-19T06:19:01.584Z,99.99
2023-11-19T06:20:01.452Z,99.99
2023-11-19T06:21:01.471Z,99.99
2023-11-19T06:22:01.443Z,99.99
2023-11-19T06:23:01.386Z,99.99
2023-11-19T06:24:01.370Z,99.99
2023-11-19T06:25:01.521Z,99.99
2023-11-19T06:26:01.417Z,99.99
2023-11-19T06:27:01.324Z,99.99
2023-11-19T06:28:01.335Z,99.99
2023-11-19T06:29:01.325Z,99.99
2023-11-19T06:30:01.308Z,99.99
2023-11-19T06:31:01.324Z,99.99
2023-11-19T06:32:14.503Z,99.99
2023-11-19T06:33:02.288Z,99.99
2023-11-19T06:34:01.346Z,99.99
2023-11-19T06:35:01.263Z,99.99
2023-11-19T06:36:01.200Z,99.99
2023-11-19T06:37:01.233Z,99.99
2023-11-19T06:38:01.173Z,99.99
2023-11-19T06:39:01.228Z,99.99
2023-11-19T06:40:01.220Z,99.99
2023-11-19T06:41:01.200Z,99.99
2023-11-19T06:42:01.132Z,99.99
2023-11-19T06:43:01.262Z,99.99
2023-11-19T06:44:01.168Z,99.99
2023-11-19T06:45:01.130Z,99.99
2023-11-19T06:46:01.134Z,99.99
2023-11-19T06:47:01.091Z,99.99
2023-11-19T06:48:01.070Z,99.99
2023-11-19T06:49:01.106Z,99.99
2023-11-19T06:50:01.084Z,99.99
2023-11-19T06:51:01.012Z,99.99
2023-11-19T06:52:01.071Z,99.99
2023-11-19T06:53:01.014Z,99.99
2023-11-19T06:54:00.999Z,99.99
2023-11-19T06:56:00.962Z,99.99
2023-11-19T06:57:00.951Z,99.99
2023-11-19T06:58:00.946Z,99.99
2023-11-19T06:59:00.937Z,99.99
2023-11-19T07:00:00.903Z,99.99
2023-11-19T07:01:00.906Z,99.99
2023-11-19T07:02:00.880Z,99.99
2023-11-19T07:03:01.081Z,99.99
2023-11-19T07:04:00.885Z,99.99
2023-11-19T07:05:00.826Z,99.99
2023-11-19T07:06:00.857Z,99.99
2023-11-19T07:07:00.836Z,99.99
2023-11-19T07:08:00.896Z,99.99
2023-11-19T07:09:00.786Z,99.99
2023-11-19T07:10:00.822Z,99.99
2023-11-19T07:11:00.760Z,99.99
2023-11-19T07:12:00.816Z,99.99
2023-11-19T07:13:00.750Z,99.99
2023-11-19T07:14:00.726Z,99.99
2023-11-19T07:15:00.737Z,99.99
2023-11-19T07:16:00.684Z,99.99
2023-11-19T07:17:00.712Z,99.99
2023-11-19T07:18:02.766Z,99.99
2023-11-19T07:19:00.653Z,99.99
2023-11-19T07:20:00.636Z,99.99
2023-11-19T07:21:00.649Z,99.99
2023-11-19T07:22:00.629Z,99.99
2023-11-19T07:23:00.584Z,99.99
2023-11-19T07:24:00.589Z,99.99
2023-11-19T07:25:04.574Z,99.99
2023-11-19T07:26:00.567Z,99.99
2023-11-19T07:27:00.598Z,99.99
2023-11-19T07:28:00.527Z,99.99
2023-11-19T07:29:00.524Z,99.99
2023-11-19T07:30:00.554Z,99.99
2023-11-19T07:31:00.519Z,99.99
2023-11-19T07:32:00.523Z,99.99
2023-11-19T07:33:00.541Z,99.99
2023-11-19T07:34:00.578Z,99.99
2023-11-19T07:35:00.437Z,99.99
2023-11-19T07:36:00.458Z,99.99
2023-11-19T07:37:00.417Z,99.99
2023-11-19T07:38:00.440Z,99.99
2023-11-19T07:39:00.369Z,99.99
2023-11-19T07:40:00.397Z,99.99
2023-11-19T07:41:00.365Z,99.99
2023-11-19T07:42:00.350Z,99.99
2023-11-19T07:43:00.320Z,99.99
2023-11-19T07:44:00.365Z,99.99
2023-11-19T07:45:00.375Z,99.99
2023-11-19T07:46:00.365Z,99.99
2023-11-19T07:47:00.298Z,99.99
2023-11-19T07:48:00.265Z,99.99
2023-11-19T07:49:00.230Z,99.99
2023-11-19T07:50:00.313Z,99.99
2023-11-19T07:51:00.258Z,99.99
2023-11-19T07:52:00.293Z,99.99
2023-11-19T07:53:00.232Z,99.99
2023-11-19T07:54:00.211Z,99.99
2023-11-19T07:55:00.223Z,99.99
2023-11-19T07:56:00.201Z,99.99
2023-11-19T07:57:00.410Z,99.99
2023-11-19T07:58:00.240Z,99.99
2023-11-19T07:59:00.089Z,99.99
2023-11-19T08:00:00.249Z,99.99
2023-11-19T08:01:00.090Z,99.99
2023-11-19T08:02:00.136Z,99.99
2023-11-19T08:03:00.177Z,99.99
2023-11-19T08:04:00.655Z,99.99
2023-11-19T08:05:00.164Z,99.99
2023-11-19T08:06:00.111Z,99.99
2023-11-19T08:07:00.007Z,99.99
2023-11-19T08:07:59.982Z,99.99
2023-11-19T08:09:00.172Z,99.99
2023-11-19T08:09:59.955Z,99.99
2023-11-19T08:10:59.938Z,99.99
2023-11-19T08:11:59.925Z,99.99
2023-11-19T08:13:00.073Z,99.99
2023-11-19T08:14:00.010Z,99.99
2023-11-19T08:14:59.915Z,99.99
2023-11-19T08:15:59.939Z,99.99
2023-11-19T08:16:59.929Z,99.99
2023-11-19T08:17:59.975Z,99.99
2023-11-19T08:18:59.841Z,99.99
2023-11-19T08:19:59.839Z,99.99
2023-11-19T08:20:59.804Z,99.99
2023-11-19T08:21:59.789Z,99.99
2023-11-19T08:22:59.974Z,99.99
2023-11-19T08:23:59.809Z,99.99
2023-11-19T08:24:59.751Z,99.99
2023-11-19T08:25:59.769Z,99.99
2023-11-19T08:27:59.860Z,99.99
2023-11-19T08:28:59.681Z,99.99
2023-11-19T08:29:59.690Z,99.99
2023-11-19T08:30:59.698Z,99.99
2023-11-19T08:32:01.304Z,99.99
2023-11-19T08:33:00.012Z,99.99
2023-11-19T08:33:59.634Z,99.99
2023-11-19T08:34:59.674Z,99.99
2023-11-19T08:35:59.600Z,99.99
2023-11-19T08:36:59.792Z,99.99
2023-11-19T08:37:59.622Z,99.99
2023-11-19T08:38:59.568Z,99.99
2023-11-19T08:39:59.561Z,99.99
2023-11-19T08:40:59.527Z,99.99
2023-11-19T08:41:59.531Z,99.99
2023-11-19T08:42:59.566Z,99.99
2023-11-19T08:43:59.488Z,99.99
2023-11-19T08:45:00.333Z,99.99
2023-11-19T08:45:59.507Z,99.99
2023-11-19T08:46:59.496Z,99.99
2023-11-19T08:47:59.508Z,99.99
2023-11-19T08:48:59.413Z,99.99
2023-11-19T08:50:59.526Z,99.99
2023-11-19T08:51:59.408Z,99.99
2023-11-19T08:52:59.396Z,99.99
2023-11-19T08:53:59.362Z,99.99
2023-11-19T08:54:59.461Z,99.99
2023-11-19T08:55:59.408Z,99.99
2023-11-19T08:56:59.337Z,99.99
2023-11-19T08:57:59.331Z,99.99
2023-11-19T08:58:59.327Z,99.99
2023-11-19T08:59:59.287Z,99.99
2023-11-19T09:00:59.631Z,99.99
2023-11-19T09:01:59.256Z,99.99
2023-11-19T09:02:59.437Z,99.99
2023-11-19T09:03:59.357Z,99.99
2023-11-19T09:04:59.553Z,99.99
2023-11-19T09:05:59.201Z,99.99
2023-11-19T09:06:59.186Z,99.99
2023-11-19T09:07:59.232Z,99.99
2023-11-19T09:08:59.198Z,99.99
2023-11-19T09:09:59.495Z,99.99
2023-11-19T09:10:59.207Z,99.99
2023-11-19T09:11:59.149Z,99.99
2023-11-19T09:12:59.302Z,99.99
2023-11-19T09:13:59.369Z,99.99
2023-11-19T09:14:59.150Z,99.99
2023-11-19T09:15:59.101Z,99.99
2023-11-19T09:16:59.145Z,99.99
2023-11-19T09:17:59.168Z,99.99
2023-11-19T09:18:59.046Z,99.99
2023-11-19T09:19:59.042Z,99.99
2023-11-19T09:20:58.993Z,99.99
2023-11-19T09:21:59.016Z,99.99
2023-11-19T09:22:59.037Z,99.99
2023-11-19T09:23:58.988Z,99.99
2023-11-19T09:24:58.978Z,99.99
2023-11-19T09:25:58.997Z,99.99
2023-11-19T09:26:58.951Z,99.99
2023-11-19T09:27:58.945Z,99.99
2023-11-19T09:28:58.906Z,99.99
2023-11-19T09:29:58.938Z,99.99
2023-11-19T09:30:58.867Z,99.99
2023-11-19T09:31:58.857Z,99.90
2023-11-19T09:32:58.907Z,99.49
2023-11-19T09:33:58.894Z,99.08
2023-11-19T09:34:58.802Z,98.88
2023-11-19T09:35:58.818Z,98.98
2023-11-19T09:36:58.862Z,98.98
2023-11-19T09:37:58.797Z,99.08
2023-11-19T09:38:58.778Z,99.18
2023-11-19T09:39:58.781Z,99.18
2023-11-19T09:40:58.792Z,98.77
2023-11-19T09:41:58.742Z,98.77
2023-11-19T09:42:58.730Z,98.77
2023-11-19T09:43:58.724Z,98.77
2023-11-19T09:44:58.671Z,98.88
2023-11-19T09:45:58.840Z,98.36
2023-11-19T09:46:58.669Z,98.16
2023-11-19T09:47:58.832Z,98.02
2023-11-19T09:48:58.620Z,97.91
2023-11-19T09:49:59.474Z,97.71
2023-11-19T09:50:58.621Z,97.66
2023-11-19T09:51:58.593Z,97.16
2023-11-19T09:52:58.613Z,96.64
2023-11-19T09:53:58.589Z,96.54
2023-11-19T09:54:58.552Z,96.64
2023-11-19T09:55:58.564Z,96.54
2023-11-19T09:56:58.668Z,96.23
2023-11-19T09:57:58.538Z,96.03
2023-11-19T09:58:58.510Z,96.03
2023-11-19T09:59:58.508Z,96.23
2023-11-19T10:01:23.309Z,96.14
2023-11-19T10:01:59.514Z,95.93
2023-11-19T10:02:58.781Z,95.93
2023-11-19T10:03:58.825Z,96.18
2023-11-19T10:04:58.423Z,96.18
2023-11-19T10:05:58.396Z,95.97
2023-11-19T10:06:58.446Z,95.87
2023-11-19T10:07:58.456Z,95.87
2023-11-19T10:08:58.398Z,95.97
2023-11-19T10:09:58.364Z,96.53
2023-11-19T10:10:58.328Z,96.84
2023-11-19T10:11:58.454Z,97.04
2023-11-19T10:12:58.645Z,97.34
2023-11-19T10:13:58.296Z,97.65
2023-11-19T10:14:58.305Z,97.86
2023-11-19T10:15:58.350Z,98.11
2023-11-19T10:16:58.407Z,98.31
2023-11-19T10:17:58.543Z,98.41
2023-11-19T10:18:58.242Z,98.52
2023-11-19T10:19:58.331Z,98.61
2023-11-19T10:20:58.238Z,98.82
2023-11-19T10:21:58.275Z,98.93
2023-11-19T10:22:58.288Z,98.93
2023-11-19T10:23:58.411Z,99.13
2023-11-19T10:24:58.164Z,99.02
2023-11-19T10:25:58.259Z,99.02
2023-11-19T10:26:58.337Z,99.02
2023-11-19T10:27:58.307Z,98.93
2023-11-19T10:28:58.140Z,99.02
2023-11-19T10:29:58.127Z,99.02
2023-11-19T10:30:58.090Z,98.93
2023-11-19T10:31:58.295Z,98.82
2023-11-19T10:32:59.135Z,98.82
2023-11-19T10:33:58.093Z,98.72
2023-11-19T10:34:58.036Z,98.72
2023-11-19T10:36:57.997Z,98.82
2023-11-19T10:37:57.992Z,98.82
2023-11-19T10:38:57.962Z,98.72
2023-11-19T10:39:58.080Z,98.41
2023-11-19T10:40:57.978Z,98.41
2023-11-19T10:41:59.567Z,98.41
2023-11-19T10:42:57.917Z,98.82
2023-11-19T10:43:58.074Z,99.23
2023-11-19T10:44:57.934Z,99.74
2023-11-19T10:45:57.945Z,99.99
2023-11-19T10:46:57.881Z,99.99
2023-11-19T10:47:58.030Z,99.99
2023-11-19T10:48:57.840Z,99.99
2023-11-19T10:49:57.867Z,99.99
2023-11-19T10:50:57.834Z,99.99
2023-11-19T10:51:57.806Z,99.99
2023-11-19T10:52:57.795Z,99.99
2023-11-19T10:53:57.810Z,99.99
2023-11-19T10:54:57.837Z,99.99
2023-11-19T10:55:57.878Z,99.99
2023-11-19T10:56:57.757Z,99.99
2023-11-19T10:57:57.822Z,99.99
2023-11-19T10:58:57.758Z,99.99
2023-11-19T10:59:57.778Z,99.99
2023-11-19T11:00:57.804Z,99.99
2023-11-19T11:01:57.671Z,99.99
2023-11-19T11:02:57.792Z,99.99
2023-11-19T11:03:57.747Z,99.99
2023-11-19T11:04:57.656Z,99.99
2023-11-19T11:05:57.646Z,99.99
2023-11-19T11:06:57.683Z,99.99
2023-11-19T11:07:57.605Z,99.99
2023-11-19T11:08:57.627Z,99.99
2023-11-19T11:09:57.752Z,99.99
2023-11-19T11:10:58.472Z,99.99
2023-11-19T11:11:57.652Z,99.99
2023-11-19T11:12:57.569Z,99.99
2023-11-19T11:13:57.622Z,99.99
2023-11-19T11:14:57.566Z,99.99
2023-11-19T11:15:57.772Z,99.99
2023-11-19T11:16:57.510Z,99.79
2023-11-19T11:17:57.529Z,99.69
2023-11-19T11:18:57.512Z,99.59
2023-11-19T11:19:57.438Z,99.49
2023-11-19T11:20:57.543Z,99.49
2023-11-19T11:21:57.421Z,99.39
2023-11-19T11:22:57.421Z,99.49
2023-11-19T11:23:57.405Z,99.39
2023-11-19T11:24:57.471Z,99.29
2023-11-19T11:25:57.354Z,99.18
2023-11-19T11:26:57.395Z,99.18
2023-11-19T11:27:57.369Z,99.08
2023-11-19T11:28:57.426Z,98.98
2023-11-19T11:29:57.313Z,98.68
2023-11-19T11:30:57.345Z,98.68
2023-11-19T11:31:57.607Z,98.77
2023-11-19T11:32:57.434Z,98.88
2023-11-19T11:34:57.390Z,98.98
2023-11-19T11:35:57.226Z,98.77
2023-11-19T11:36:57.336Z,98.68
2023-11-19T11:37:57.221Z,98.68
2023-11-19T11:38:57.192Z,98.77
2023-11-19T11:39:57.179Z,98.77
2023-11-19T11:40:57.163Z,98.88
2023-11-19T11:41:57.283Z,98.98
2023-11-19T11:42:57.202Z,99.39
2023-11-19T11:43:57.669Z,99.90
2023-11-19T11:44:57.097Z,99.99
2023-11-19T11:45:57.375Z,99.99
2023-11-19T11:46:57.375Z,99.99
2023-11-19T11:47:57.075Z,99.99
2023-11-19T11:48:57.110Z,99.99
2023-11-19T11:49:57.033Z,99.99
2023-11-19T11:50:57.115Z,99.99
2023-11-19T11:51:57.046Z,99.99
2023-11-19T11:52:57.008Z,99.99
2023-11-19T11:53:56.985Z,99.99
2023-11-19T11:54:57.090Z,99.99
2023-11-19T11:55:56.994Z,99.99
2023-11-19T11:57:56.962Z,99.99
2023-11-19T11:58:56.975Z,99.99
2023-11-19T11:59:56.951Z,99.99
2023-11-19T12:00:56.987Z,99.99
2023-11-19T12:01:56.877Z,99.99
2023-11-19T12:02:56.897Z,99.99
2023-11-19T12:03:57.014Z,99.99
2023-11-19T12:04:56.951Z,99.99
2023-11-19T12:05:56.888Z,99.99
2023-11-19T12:06:56.809Z,99.99
2023-11-19T12:07:56.796Z,99.99
2023-11-19T12:08:56.827Z,99.99
2023-11-19T12:09:57.055Z,99.99
2023-11-19T12:10:57.007Z,99.99
2023-11-19T12:11:56.746Z,99.99
2023-11-19T12:12:56.777Z,99.99
2023-11-19T12:13:56.881Z,99.99
2023-11-19T12:14:56.713Z,99.99
2023-11-19T12:15:56.783Z,99.99
2023-11-19T12:16:56.722Z,99.99
2023-11-19T12:17:56.853Z,99.99
2023-11-19T12:18:56.709Z,99.99
2023-11-19T12:19:56.773Z,99.99
2023-11-19T12:20:56.691Z,99.99
2023-11-19T12:21:56.638Z,99.99
2023-11-19T12:22:56.891Z,99.99
2023-11-19T12:23:56.627Z,99.99
2023-11-19T12:24:56.628Z,99.99
2023-11-19T12:25:56.582Z,99.99
2023-11-19T12:26:56.634Z,99.99
2023-11-19T12:27:56.573Z,99.99
2023-11-19T12:28:56.592Z,99.99
2023-11-19T12:29:56.525Z,99.79
2023-11-19T12:30:56.613Z,99.69
2023-11-19T12:32:57.506Z,99.29
2023-11-19T12:33:56.641Z,99.08
2023-11-19T12:34:56.468Z,98.98
2023-11-19T12:35:56.465Z,99.08
2023-11-19T12:36:56.437Z,98.98
2023-11-19T12:37:56.429Z,98.98
2023-11-19T12:38:56.437Z,98.98
2023-11-19T12:39:56.435Z,98.77
2023-11-19T12:40:56.408Z,98.68
2023-11-19T12:41:56.382Z,98.73
2023-11-19T12:42:56.625Z,98.63
2023-11-19T12:43:56.369Z,98.63
2023-11-19T12:44:56.331Z,98.27
2023-11-19T12:45:58.030Z,98.22
2023-11-19T12:47:00.357Z,98.11
2023-11-19T12:47:56.314Z,97.91
2023-11-19T12:48:56.371Z,97.91
2023-11-19T12:49:56.261Z,97.81
2023-11-19T12:50:56.242Z,98.02
2023-11-19T12:51:56.270Z,98.22
2023-11-19T12:52:56.253Z,98.32
2023-11-19T12:53:56.373Z,98.11
2023-11-19T12:54:56.233Z,98.11
2023-11-19T12:55:56.188Z,98.11
2023-11-19T12:56:56.342Z,98.11
2023-11-19T12:57:56.312Z,98.22
2023-11-19T12:58:56.139Z,98.11
2023-11-19T12:59:56.444Z,97.91
2023-11-19T13:00:56.300Z,98.02
2023-11-19T13:01:56.104Z,98.02